Skip Navigation Links Skip Navigation Links

Current Weather

Boryspil, Kiev, Ukraine

For information only: do not use for flight planning or navigation.
Latest weather
Observation time Monday, March 19, 2018 12:30 PM EET
Local time Monday, March 19, 2018 12:54 PM EET
Flight conditions Visual Meteorological Conditions
Wind direction East-Northeast (60°)
Winds variable from 20° to 90°
Wind speed 7 mph
Visibility 6.2 mi.
Sky condition
Ceiling unlimited
Sky clear
Temperature 27°F
Dewpoint 3°F
Altimeter 30.00 in.Hg
Derived measurements
Relative humidity 36%
Wind chill 19°F
Density altitude -1726 ft.
Ceiling and visibility OK.
No significant changes expected in the next two hours.
METAR UKKK 191030Z 06003MPS 020V090 CAVOK M03/M16 Q1016 R08/820345 NOSIG


Location code

InnerDrive.Weather 4.0.6615.0 Release CLR 4.0.30319.42000
Copyright ©2018 Inner Drive Technology. All rights reserved. Portions Copyright ©1986-2018 David Braverman.

Find weather

Site navigation

Skip Navigation Links

Place info

Page info

PayPal - The safer, easier way to pay online!

Return home.

Copyright ©2018 Inner Drive Technology. Purveyors of fine, hand-crafted computer software. Page printed 2018-03-19T10:54:53 UTC.